createdAt,value
2022-11-06T00:00:44.161Z,44.34
2022-11-06T00:03:12.713Z,44.57
2022-11-06T00:05:59.546Z,44.42
2022-11-06T00:08:33.865Z,44.26
2022-11-06T00:11:02.547Z,44.30
2022-11-06T00:13:32.205Z,44.28
2022-11-06T00:16:05.670Z,44.12
2022-11-06T00:18:34.301Z,43.91
2022-11-06T00:21:08.950Z,44.27
2022-11-06T00:23:37.751Z,44.16
2022-11-06T00:26:10.539Z,43.98
2022-11-06T00:28:39.200Z,44.27
2022-11-06T00:31:11.413Z,44.18
2022-11-06T00:33:40.144Z,44.07
2022-11-06T00:36:11.803Z,44.04
2022-11-06T00:38:40.288Z,43.94
2022-11-06T00:41:17.703Z,44.12
2022-11-06T00:43:49.727Z,43.75
2022-11-06T00:46:20.080Z,43.87
2022-11-06T00:48:48.734Z,44.00
2022-11-06T00:51:20.029Z,43.89
2022-11-06T00:53:48.683Z,43.67
2022-11-06T00:56:19.652Z,43.73
2022-11-06T00:58:49.002Z,43.67
2022-11-06T01:01:20.365Z,43.80
2022-11-06T01:03:53.513Z,43.73
2022-11-06T01:06:23.511Z,43.55
2022-11-06T01:08:52.457Z,43.70
2022-11-06T01:11:22.308Z,43.60
2022-11-06T01:13:52.407Z,43.39
2022-11-06T01:16:22.580Z,43.43
2022-11-06T01:18:51.401Z,43.59
2022-11-06T01:21:23.083Z,43.46
2022-11-06T01:23:54.433Z,43.67
2022-11-06T01:26:37.138Z,43.40
2022-11-06T01:29:08.585Z,43.40
2022-11-06T01:31:38.531Z,43.24
2022-11-06T01:34:07.268Z,43.24
2022-11-06T01:36:35.818Z,43.40
2022-11-06T01:39:07.028Z,43.40
2022-11-06T01:41:36.854Z,43.30
2022-11-06T01:44:09.745Z,43.36
2022-11-06T01:46:39.871Z,43.48
2022-11-06T01:49:19.478Z,43.25
2022-11-06T01:51:50.369Z,43.24
2022-11-06T01:54:18.933Z,43.15
2022-11-06T01:56:50.002Z,42.96
2022-11-06T01:59:20.708Z,43.01
2022-11-06T02:01:50.730Z,43.12
2022-11-06T02:04:28.401Z,42.97
2022-11-06T02:06:57.365Z,42.94
2022-11-06T02:09:26.604Z,42.67
2022-11-06T02:11:58.993Z,42.75
2022-11-06T02:14:33.127Z,42.70
2022-11-06T02:17:05.730Z,42.71
2022-11-06T02:19:50.709Z,42.64
2022-11-06T02:23:01.870Z,42.49
2022-11-06T02:25:42.047Z,42.36
2022-11-06T02:28:15.134Z,42.50
2022-11-06T02:30:46.150Z,42.45
2022-11-06T02:33:16.910Z,42.49
2022-11-06T02:35:48.332Z,42.59
2022-11-06T02:38:20.010Z,42.39
2022-11-06T02:40:53.318Z,42.33
2022-11-06T02:43:26.153Z,42.37
2022-11-06T02:45:57.073Z,42.12
2022-11-06T02:48:29.453Z,42.27
2022-11-06T02:50:58.744Z,42.21
2022-11-06T02:53:27.440Z,42.05
2022-11-06T02:55:57.772Z,42.15
2022-11-06T02:58:32.851Z,42.18
2022-11-06T03:01:04.949Z,42.15
2022-11-06T03:03:35.412Z,42.29
2022-11-06T03:06:07.799Z,42.17
2022-11-06T03:08:40.533Z,42.27
2022-11-06T03:11:14.804Z,42.03
2022-11-06T03:13:52.400Z,42.23
2022-11-06T03:16:31.153Z,42.21
2022-11-06T03:19:05.776Z,42.19
2022-11-06T03:21:39.992Z,41.98
2022-11-06T03:24:16.057Z,42.14
2022-11-06T03:26:47.342Z,41.99
2022-11-06T03:29:19.700Z,42.02
2022-11-06T03:31:51.975Z,42.05
2022-11-06T03:34:27.106Z,41.82
2022-11-06T03:37:00.483Z,41.86
2022-11-06T03:39:31.356Z,42.05
2022-11-06T03:42:04.178Z,41.80
2022-11-06T03:44:35.650Z,41.80
2022-11-06T03:47:08.912Z,41.82
2022-11-06T03:49:40.725Z,42.00
2022-11-06T03:52:13.407Z,41.87
2022-11-06T03:54:44.153Z,41.87
2022-11-06T03:57:15.280Z,41.69
2022-11-06T03:59:47.768Z,41.82
2022-11-06T04:02:16.757Z,41.82
2022-11-06T04:04:48.984Z,41.67
2022-11-06T04:07:19.124Z,41.65
2022-11-06T04:10:10.425Z,41.66
2022-11-06T04:13:01.943Z,41.82
2022-11-06T04:15:34.317Z,41.53
2022-11-06T04:18:02.962Z,41.75
2022-11-06T04:20:54.321Z,41.69
2022-11-06T04:23:32.547Z,41.60
2022-11-06T04:26:24.206Z,41.67
2022-11-06T04:28:57.515Z,41.58
2022-11-06T04:31:32.422Z,41.39
2022-11-06T04:34:03.927Z,41.40
2022-11-06T04:36:44.938Z,41.35
2022-11-06T04:39:19.732Z,41.45
2022-11-06T04:41:52.857Z,41.34
2022-11-06T04:44:25.407Z,41.49
2022-11-06T04:46:58.196Z,41.40
2022-11-06T04:49:26.786Z,41.42
2022-11-06T04:51:55.518Z,41.30
2022-11-06T04:54:24.111Z,41.55
2022-11-06T04:56:52.613Z,41.32
2022-11-06T04:59:21.149Z,41.39
2022-11-06T05:01:49.902Z,41.27
2022-11-06T05:04:20.072Z,41.36
2022-11-06T05:06:48.592Z,41.37
2022-11-06T05:09:17.211Z,41.49
2022-11-06T05:11:45.816Z,41.45
2022-11-06T05:14:14.305Z,41.28
2022-11-06T05:16:43.124Z,41.19
2022-11-06T05:19:11.749Z,41.32
2022-11-06T05:21:59.326Z,41.20
2022-11-06T05:24:27.945Z,41.28
2022-11-06T05:26:59.642Z,41.39
2022-11-06T05:29:28.618Z,41.39
2022-11-06T05:31:57.076Z,41.44
2022-11-06T05:34:25.745Z,41.24
2022-11-06T05:36:55.569Z,41.38
2022-11-06T05:39:24.215Z,41.35
2022-11-06T05:41:52.809Z,41.11
2022-11-06T05:44:21.499Z,41.26
2022-11-06T05:46:50.418Z,41.29
2022-11-06T05:49:19.603Z,41.24
2022-11-06T05:51:48.500Z,41.21
2022-11-06T05:54:18.449Z,41.22
2022-11-06T05:56:46.964Z,41.17
2022-11-06T05:59:15.525Z,41.33
2022-11-06T06:01:44.237Z,41.14
2022-11-06T06:04:12.901Z,41.06
2022-11-06T06:06:41.571Z,41.27
2022-11-06T06:09:10.085Z,41.07
2022-11-06T06:11:40.068Z,41.23
2022-11-06T06:14:08.568Z,41.43
2022-11-06T06:16:37.263Z,41.66
2022-11-06T06:19:05.835Z,41.69
2022-11-06T06:21:34.362Z,41.80
2022-11-06T06:24:02.908Z,41.70
2022-11-06T06:26:31.507Z,41.95
2022-11-06T06:29:02.231Z,41.53
2022-11-06T06:31:31.088Z,41.77
2022-11-06T06:33:59.903Z,41.55
2022-11-06T06:36:28.627Z,41.89
2022-11-06T06:38:57.856Z,41.68
2022-11-06T06:41:26.627Z,41.65
2022-11-06T06:43:55.517Z,41.31
2022-11-06T06:46:25.734Z,42.32
2022-11-06T06:48:54.551Z,41.87
2022-11-06T06:51:24.181Z,41.70
2022-11-06T06:53:53.229Z,41.83
2022-11-06T06:56:22.023Z,42.72
2022-11-06T06:58:50.995Z,42.75
2022-11-06T07:01:19.815Z,42.24
2022-11-06T07:03:50.258Z,41.77
2022-11-06T07:06:20.480Z,42.03
2022-11-06T07:08:49.815Z,42.62
2022-11-06T07:11:19.279Z,42.83
2022-11-06T07:13:48.095Z,42.47
2022-11-06T07:16:17.024Z,42.32
2022-11-06T07:18:45.926Z,42.74
2022-11-06T07:21:16.402Z,42.28
2022-11-06T07:23:46.388Z,42.05
2022-11-06T07:26:15.259Z,42.64
2022-11-06T07:28:44.223Z,41.88
2022-11-06T07:31:13.519Z,39.75
2022-11-06T07:33:42.500Z,40.83
2022-11-06T07:36:12.259Z,42.01
2022-11-06T07:38:43.332Z,41.14
2022-11-06T07:41:13.094Z,40.20
2022-11-06T07:43:41.980Z,41.05
2022-11-06T07:46:13.052Z,40.69
2022-11-06T07:48:42.145Z,40.48
2022-11-06T07:51:11.647Z,40.95
2022-11-06T07:53:42.234Z,40.55
2022-11-06T07:56:11.584Z,41.89
2022-11-06T07:58:40.583Z,40.51
2022-11-06T08:01:17.710Z,40.29
2022-11-06T08:03:47.529Z,40.03
2022-11-06T08:06:16.282Z,40.04
2022-11-06T08:08:46.761Z,40.04
2022-11-06T08:11:15.610Z,40.38
2022-11-06T08:13:44.398Z,40.49
2022-11-06T08:16:14.199Z,40.02
2022-11-06T08:18:43.501Z,40.07
2022-11-06T08:21:12.273Z,40.09
2022-11-06T08:23:41.100Z,40.75
2022-11-06T08:26:11.496Z,40.04
2022-11-06T08:28:40.307Z,40.39
2022-11-06T08:31:09.291Z,40.02
2022-11-06T08:33:38.495Z,41.08
2022-11-06T08:36:08.004Z,40.77
2022-11-06T08:38:36.902Z,40.72
2022-11-06T08:41:07.915Z,40.66
2022-11-06T08:43:38.409Z,40.35
2022-11-06T08:46:07.489Z,40.64
2022-11-06T08:48:36.351Z,40.34
2022-11-06T08:51:06.166Z,42.13
2022-11-06T08:53:35.238Z,42.20
2022-11-06T08:56:04.735Z,42.24
2022-11-06T08:58:33.525Z,42.57
2022-11-06T09:01:03.787Z,42.42
2022-11-06T09:03:32.666Z,42.40
2022-11-06T09:06:01.563Z,42.44
2022-11-06T09:08:30.493Z,42.79
2022-11-06T09:10:59.342Z,42.50
2022-11-06T09:13:28.237Z,42.60
2022-11-06T09:15:57.119Z,42.88
2022-11-06T09:18:27.309Z,42.43
2022-11-06T09:20:57.067Z,42.88
2022-11-06T09:23:26.102Z,43.00
2022-11-06T09:25:54.947Z,42.98
2022-11-06T09:28:23.793Z,42.73
2022-11-06T09:30:52.567Z,43.09
2022-11-06T09:33:21.674Z,43.13
2022-11-06T09:35:52.874Z,43.12
2022-11-06T09:38:21.637Z,43.28
2022-11-06T09:40:52.603Z,42.90
2022-11-06T09:46:29.085Z,43.70
2022-11-06T09:48:59.964Z,43.31
2022-11-06T09:51:37.628Z,42.90
2022-11-06T09:54:09.483Z,43.66
2022-11-06T09:56:39.428Z,43.91
2022-11-06T09:59:10.896Z,43.21
2022-11-06T10:01:42.433Z,43.79
2022-11-06T10:04:19.880Z,44.30
2022-11-06T10:06:50.131Z,43.96
2022-11-06T10:09:18.952Z,44.14
2022-11-06T10:11:53.490Z,44.40
2022-11-06T10:14:30.039Z,44.42
2022-11-06T10:17:00.973Z,44.03
2022-11-06T10:19:35.995Z,44.35
2022-11-06T10:22:10.581Z,44.30
2022-11-06T10:24:41.030Z,44.21
2022-11-06T10:27:13.364Z,43.51
2022-11-06T10:30:04.998Z,44.22
2022-11-06T10:33:03.287Z,44.21
2022-11-06T10:35:34.785Z,44.03
2022-11-06T10:38:07.285Z,43.76
2022-11-06T10:40:36.407Z,44.32
2022-11-06T10:43:10.145Z,44.37
2022-11-06T10:45:39.123Z,44.37
2022-11-06T10:48:16.175Z,44.41
2022-11-06T10:50:49.898Z,44.25
2022-11-06T10:53:22.883Z,44.18
2022-11-06T10:56:10.955Z,44.30
2022-11-06T10:58:40.281Z,44.45
2022-11-06T11:01:10.335Z,44.79
2022-11-06T11:03:41.118Z,44.80
2022-11-06T11:06:09.977Z,44.94
2022-11-06T11:08:42.207Z,45.18
2022-11-06T11:11:22.907Z,45.95
2022-11-06T11:13:53.411Z,45.17
2022-11-06T11:16:23.875Z,45.43
2022-11-06T11:18:52.958Z,45.40
2022-11-06T11:21:26.332Z,46.01
2022-11-06T11:24:08.977Z,46.38
2022-11-06T11:26:39.788Z,46.24
2022-11-06T11:29:17.037Z,46.25
2022-11-06T11:31:48.069Z,46.00
2022-11-06T11:34:18.925Z,45.98
2022-11-06T11:36:52.223Z,46.04
2022-11-06T11:39:23.430Z,46.22
2022-11-06T11:41:52.208Z,46.01
2022-11-06T11:44:21.613Z,46.14
2022-11-06T11:46:51.394Z,46.28
2022-11-06T11:49:29.011Z,46.29
2022-11-06T11:51:58.386Z,46.23
2022-11-06T11:54:29.856Z,45.89
2022-11-06T11:57:07.391Z,45.86
2022-11-06T11:59:38.874Z,46.27
2022-11-06T12:02:15.164Z,46.26
2022-11-06T12:04:45.083Z,46.14
2022-11-06T12:07:23.618Z,46.50
2022-11-06T12:09:53.814Z,46.89
2022-11-06T12:12:23.634Z,46.27
2022-11-06T12:15:16.117Z,46.27
2022-11-06T12:19:36.919Z,46.60
2022-11-06T12:22:08.549Z,46.57
2022-11-06T12:24:40.539Z,46.20
2022-11-06T12:27:12.073Z,46.00
2022-11-06T12:29:42.346Z,45.98
2022-11-06T12:32:20.017Z,46.44
2022-11-06T12:34:53.756Z,46.44
2022-11-06T12:37:25.010Z,46.19
2022-11-06T12:39:55.756Z,46.51
2022-11-06T12:42:25.818Z,46.41
2022-11-06T12:44:54.532Z,46.28
2022-11-06T12:47:29.993Z,46.23
2022-11-06T12:50:06.251Z,45.87
2022-11-06T12:52:44.717Z,45.92
2022-11-06T12:55:19.392Z,46.20
2022-11-06T12:58:04.008Z,45.97
2022-11-06T13:00:34.518Z,46.11
2022-11-06T13:03:27.766Z,45.45
2022-11-06T13:06:00.728Z,45.73
2022-11-06T13:08:35.587Z,45.85
2022-11-06T13:11:10.508Z,45.64
2022-11-06T13:13:50.988Z,45.75
2022-11-06T13:16:25.968Z,45.70
2022-11-06T13:18:57.263Z,45.46
2022-11-06T13:21:32.932Z,45.61
2022-11-06T13:24:04.212Z,45.40
2022-11-06T13:26:36.228Z,45.43
2022-11-06T13:29:05.688Z,45.50
2022-11-06T13:31:37.363Z,45.37
2022-11-06T13:34:06.373Z,45.23
2022-11-06T13:36:37.705Z,45.50
2022-11-06T13:39:08.054Z,45.42
2022-11-06T13:41:36.824Z,45.69
2022-11-06T13:44:06.550Z,45.42
2022-11-06T13:46:39.808Z,45.72
2022-11-06T13:49:17.702Z,45.50
2022-11-06T13:51:51.561Z,45.39
2022-11-06T13:54:25.156Z,45.65
2022-11-06T13:57:22.958Z,45.78
2022-11-06T14:00:19.420Z,45.74
2022-11-06T14:03:21.155Z,45.61
2022-11-06T14:05:55.301Z,45.31
2022-11-06T14:08:28.286Z,45.60
2022-11-06T14:10:59.557Z,45.35
2022-11-06T14:13:30.142Z,45.37
2022-11-06T14:16:27.797Z,45.55
2022-11-06T14:18:58.393Z,45.05
2022-11-06T14:21:46.158Z,45.60
2022-11-06T14:24:30.701Z,45.32
2022-11-06T14:26:59.876Z,45.24
2022-11-06T14:30:02.280Z,45.66
2022-11-06T14:32:45.057Z,45.36
2022-11-06T14:35:47.280Z,45.47
2022-11-06T14:38:39.569Z,44.94
2022-11-06T14:41:51.126Z,45.33
2022-11-06T14:44:42.858Z,45.03
2022-11-06T14:47:23.152Z,44.69
2022-11-06T14:49:53.031Z,44.88
2022-11-06T14:52:22.313Z,44.76
2022-11-06T14:55:03.472Z,45.40
2022-11-06T14:57:45.811Z,45.06
2022-11-06T15:00:32.661Z,45.54
2022-11-06T15:03:01.686Z,45.16
2022-11-06T15:05:31.416Z,45.28
2022-11-06T15:08:15.378Z,45.58
2022-11-06T15:10:54.759Z,45.29
2022-11-06T15:13:31.196Z,45.20
2022-11-06T15:16:12.364Z,45.24
2022-11-06T15:18:42.122Z,45.39
2022-11-06T15:21:11.747Z,45.18
2022-11-06T15:23:43.314Z,45.09
2022-11-06T15:26:19.497Z,45.22
2022-11-06T15:28:49.997Z,45.06
2022-11-06T15:31:20.262Z,45.03
2022-11-06T15:33:55.707Z,45.07
2022-11-06T15:36:24.884Z,44.96
2022-11-06T15:38:53.772Z,44.75
2022-11-06T15:41:24.146Z,44.96
2022-11-06T15:43:55.056Z,44.81
2022-11-06T15:46:26.368Z,44.94
2022-11-06T15:49:19.399Z,45.13
2022-11-06T15:51:55.568Z,44.60
2022-11-06T15:54:36.124Z,44.71
2022-11-06T15:57:07.130Z,44.74
2022-11-06T15:59:36.073Z,44.85
2022-11-06T16:02:11.087Z,44.98
2022-11-06T16:04:40.866Z,44.89
2022-11-06T16:07:09.657Z,44.67
2022-11-06T16:09:38.762Z,44.63
2022-11-06T16:12:08.367Z,44.73
2022-11-06T16:14:40.611Z,44.95
2022-11-06T16:17:12.526Z,45.58
2022-11-06T16:19:41.581Z,45.33
2022-11-06T16:22:11.973Z,45.43
2022-11-06T16:24:43.043Z,44.99
2022-11-06T16:27:11.842Z,45.51
2022-11-06T16:29:40.728Z,45.32
2022-11-06T16:32:16.676Z,45.04
2022-11-06T16:34:46.590Z,45.39
2022-11-06T16:37:37.724Z,45.07
2022-11-06T16:40:23.339Z,44.96
2022-11-06T16:43:02.517Z,45.03
2022-11-06T16:45:32.006Z,44.75
2022-11-06T16:48:32.317Z,44.91
2022-11-06T16:51:01.987Z,45.52
2022-11-06T16:53:31.645Z,44.87
2022-11-06T16:56:01.530Z,44.92
2022-11-06T16:58:30.452Z,44.93
2022-11-06T17:01:01.533Z,45.18
2022-11-06T17:03:36.094Z,44.94
2022-11-06T17:06:05.063Z,45.01
2022-11-06T17:08:38.595Z,45.06
2022-11-06T17:11:21.659Z,45.18
2022-11-06T17:13:51.202Z,45.00
2022-11-06T17:16:20.852Z,45.28
2022-11-06T17:18:51.130Z,45.55
2022-11-06T17:21:21.101Z,45.25
2022-11-06T17:23:50.221Z,44.86
2022-11-06T17:26:21.145Z,45.44
2022-11-06T17:28:49.984Z,44.93
2022-11-06T17:31:19.826Z,45.37
2022-11-06T17:33:50.156Z,45.47
2022-11-06T17:36:21.144Z,44.97
2022-11-06T17:38:50.089Z,45.77
2022-11-06T17:41:30.077Z,45.94
2022-11-06T17:44:02.615Z,45.69
2022-11-06T17:46:32.580Z,45.13
2022-11-06T17:49:02.780Z,45.17
2022-11-06T17:51:58.402Z,45.25
2022-11-06T17:54:28.309Z,45.06
2022-11-06T17:56:57.446Z,44.85
2022-11-06T17:59:26.285Z,45.19
2022-11-06T18:01:55.916Z,45.52
2022-11-06T18:04:27.104Z,45.38
2022-11-06T18:06:56.125Z,45.63
2022-11-06T18:09:25.795Z,45.45
2022-11-06T18:11:55.087Z,45.53
2022-11-06T18:14:25.055Z,45.38
2022-11-06T18:16:53.956Z,45.88
2022-11-06T18:19:23.972Z,46.00
2022-11-06T18:21:54.394Z,46.73
2022-11-06T18:24:23.301Z,46.68
2022-11-06T18:26:52.215Z,46.19
2022-11-06T18:29:21.287Z,46.23
2022-11-06T18:31:50.131Z,46.56
2022-11-06T18:34:21.196Z,46.51
2022-11-06T18:36:51.237Z,45.88
2022-11-06T18:39:21.903Z,45.92
2022-11-06T18:41:51.062Z,46.34
2022-11-06T18:44:19.964Z,46.38
2022-11-06T18:46:48.880Z,46.13
2022-11-06T18:49:17.723Z,46.24
2022-11-06T18:51:46.530Z,46.19
2022-11-06T18:54:15.432Z,45.92
2022-11-06T18:56:45.733Z,45.51
2022-11-06T18:59:15.714Z,45.62
2022-11-06T19:01:44.654Z,45.62
2022-11-06T19:04:13.613Z,45.61
2022-11-06T19:06:42.625Z,46.28
2022-11-06T19:09:11.445Z,46.09
2022-11-06T19:11:40.978Z,45.56
2022-11-06T19:14:11.129Z,45.41
2022-11-06T19:16:40.177Z,45.29
2022-11-06T19:19:09.079Z,45.47
2022-11-06T19:21:38.017Z,45.43
2022-11-06T19:24:07.339Z,45.53
2022-11-06T19:26:36.583Z,45.30
2022-11-06T19:29:07.640Z,45.35
2022-11-06T19:31:37.963Z,45.37
2022-11-06T19:34:07.591Z,45.63
2022-11-06T19:36:36.551Z,45.94
2022-11-06T19:39:05.553Z,46.32
2022-11-06T19:41:34.593Z,46.21
2022-11-06T19:44:03.393Z,46.87
2022-11-06T19:46:35.844Z,46.49
2022-11-06T19:49:07.106Z,46.38
2022-11-06T19:51:37.533Z,46.65
2022-11-06T19:54:07.664Z,46.52
2022-11-06T19:56:36.519Z,46.52
2022-11-06T19:59:25.575Z,46.24
2022-11-06T20:01:54.581Z,46.49
2022-11-06T20:04:25.037Z,46.34
2022-11-06T20:06:53.882Z,46.33
2022-11-06T20:09:22.694Z,46.15
2022-11-06T20:11:53.112Z,46.28
2022-11-06T20:14:21.949Z,46.00
2022-11-06T20:16:51.039Z,45.99
2022-11-06T20:19:19.948Z,46.05
2022-11-06T20:21:50.156Z,45.90
2022-11-06T20:24:18.933Z,45.92
2022-11-06T20:26:47.916Z,45.96
2022-11-06T20:29:16.765Z,46.07
2022-11-06T20:31:45.733Z,45.77
2022-11-06T20:34:14.538Z,45.74
2022-11-06T20:36:43.319Z,45.67
2022-11-06T20:39:15.367Z,45.71
2022-11-06T20:41:44.468Z,45.61
2022-11-06T20:44:13.328Z,45.63
2022-11-06T20:46:42.271Z,45.78
2022-11-06T20:49:11.412Z,45.74
2022-11-06T20:52:07.344Z,45.62
2022-11-06T20:54:30.553Z,45.33
2022-11-06T20:56:59.508Z,45.60
2022-11-06T20:59:31.068Z,45.40
2022-11-06T21:02:00.156Z,45.38
2022-11-06T21:04:30.027Z,45.39
2022-11-06T21:06:59.085Z,45.34
2022-11-06T21:09:29.337Z,45.31
2022-11-06T21:11:58.314Z,45.21
2022-11-06T21:14:27.221Z,45.12
2022-11-06T21:16:56.705Z,45.29
2022-11-06T21:19:25.562Z,45.14
2022-11-06T21:21:56.876Z,45.21
2022-11-06T21:24:25.755Z,45.24
2022-11-06T21:26:56.532Z,45.21
2022-11-06T21:29:25.658Z,45.38
2022-11-06T21:31:55.058Z,45.03
2022-11-06T21:34:24.741Z,45.41
2022-11-06T21:36:56.911Z,45.33
2022-11-06T21:39:34.573Z,45.32
2022-11-06T21:42:06.601Z,45.44
2022-11-06T21:44:35.483Z,45.13
2022-11-06T21:47:04.399Z,45.30
2022-11-06T21:49:33.283Z,45.31
2022-11-06T21:52:28.075Z,45.19
2022-11-06T21:55:15.866Z,45.28
2022-11-06T21:57:47.245Z,45.00
2022-11-06T22:00:16.686Z,45.28
2022-11-06T22:02:45.816Z,45.17
2022-11-06T22:05:14.763Z,45.10
2022-11-06T22:07:43.612Z,45.03
2022-11-06T22:10:12.557Z,45.10
2022-11-06T22:12:41.395Z,45.01
2022-11-06T22:15:11.946Z,45.25
2022-11-06T22:17:40.766Z,45.06
2022-11-06T22:20:10.425Z,45.31
2022-11-06T22:22:39.263Z,45.71
2022-11-06T22:25:08.848Z,45.37
2022-11-06T22:27:40.907Z,45.34
2022-11-06T22:30:13.195Z,45.49
2022-11-06T22:32:42.897Z,45.41
2022-11-06T22:35:11.878Z,45.14
2022-11-06T22:37:40.667Z,45.33
2022-11-06T22:40:10.997Z,45.51
2022-11-06T22:42:39.964Z,45.71
2022-11-06T22:45:11.371Z,45.66
2022-11-06T22:47:40.514Z,45.53
2022-11-06T22:50:10.037Z,45.58
2022-11-06T22:52:38.782Z,45.90
2022-11-06T22:55:08.181Z,45.81
2022-11-06T22:57:36.931Z,45.49
2022-11-06T23:00:06.814Z,45.54
2022-11-06T23:02:37.129Z,45.69
2022-11-06T23:05:06.388Z,45.68
2022-11-06T23:07:35.142Z,45.59
2022-11-06T23:10:04.050Z,45.69
2022-11-06T23:12:32.859Z,45.70
2022-11-06T23:15:01.695Z,45.69
2022-11-06T23:17:30.513Z,45.79
2022-11-06T23:20:00.905Z,45.94
2022-11-06T23:22:38.361Z,45.69
2022-11-06T23:25:07.903Z,45.92
2022-11-06T23:27:36.915Z,45.73
2022-11-06T23:30:06.639Z,45.83
2022-11-06T23:32:36.456Z,46.02
2022-11-06T23:35:10.342Z,45.83
2022-11-06T23:37:42.222Z,45.70
2022-11-06T23:40:12.307Z,45.74
2022-11-06T23:42:41.198Z,45.98
2022-11-06T23:45:29.309Z,45.89
2022-11-06T23:47:58.166Z,45.57
2022-11-06T23:50:28.436Z,45.94
2022-11-06T23:52:57.245Z,45.73
2022-11-06T23:55:26.178Z,45.99
2022-11-06T23:57:55.032Z,45.82
